sensor_id;sensor_type;location;lat;lon;timestamp;pressure;altitude;pressure_sealevel;temperature
69364;BMP280;56526;55.406;86.130;2022-10-22T00:00:38;98428.03;;;7.88
69364;BMP280;56526;55.406;86.130;2022-10-22T00:03:04;98418.59;;;7.87
69364;BMP280;56526;55.406;86.130;2022-10-22T00:05:30;98407.56;;;7.85
69364;BMP280;56526;55.406;86.130;2022-10-22T00:07:56;98410.91;;;7.77
69364;BMP280;56526;55.406;86.130;2022-10-22T00:10:23;98399.22;;;7.69
69364;BMP280;56526;55.406;86.130;2022-10-22T00:12:50;98393.09;;;7.60
69364;BMP280;56526;55.406;86.130;2022-10-22T00:15:17;98387.97;;;7.55
69364;BMP280;56526;55.406;86.130;2022-10-22T00:17:43;98388.06;;;7.50
69364;BMP280;56526;55.406;86.130;2022-10-22T00:20:10;98385.22;;;7.46
69364;BMP280;56526;55.406;86.130;2022-10-22T00:22:41;98378.22;;;7.42
69364;BMP280;56526;55.406;86.130;2022-10-22T00:25:07;98370.63;;;7.40
69364;BMP280;56526;55.406;86.130;2022-10-22T00:27:34;98368.59;;;7.37
69364;BMP280;56526;55.406;86.130;2022-10-22T00:30:00;98369.38;;;7.38
69364;BMP280;56526;55.406;86.130;2022-10-22T00:32:35;98367.50;;;7.38
69364;BMP280;56526;55.406;86.130;2022-10-22T00:35:01;98364.09;;;7.38
69364;BMP280;56526;55.406;86.130;2022-10-22T00:37:31;98363.81;;;7.39
69364;BMP280;56526;55.406;86.130;2022-10-22T00:39:58;98360.41;;;7.39
69364;BMP280;56526;55.406;86.130;2022-10-22T00:42:26;98357.75;;;7.39
69364;BMP280;56526;55.406;86.130;2022-10-22T00:53:09;98350.06;;;7.42
69364;BMP280;56526;55.406;86.130;2022-10-22T00:55:41;98345.59;;;7.43
69364;BMP280;56526;55.406;86.130;2022-10-22T00:58:09;98347.16;;;7.44
69364;BMP280;56526;55.406;86.130;2022-10-22T01:00:35;98351.63;;;7.43
69364;BMP280;56526;55.406;86.130;2022-10-22T01:03:02;98351.63;;;7.43
69364;BMP280;56526;55.406;86.130;2022-10-22T01:05:32;98337.56;;;7.48
69364;BMP280;56526;55.406;86.130;2022-10-22T01:08:05;98339.91;;;7.49
69364;BMP280;56526;55.406;86.130;2022-10-22T01:22:37;98333.00;;;7.53
69364;BMP280;56526;55.406;86.130;2022-10-22T01:25:04;98311.00;;;7.58
69364;BMP280;56526;55.406;86.130;2022-10-22T01:30:53;98323.00;;;7.64
69364;BMP280;56526;55.406;86.130;2022-10-22T01:33:22;98333.38;;;7.69
69364;BMP280;56526;55.406;86.130;2022-10-22T01:35:51;98324.91;;;7.72
69364;BMP280;56526;55.406;86.130;2022-10-22T01:38:20;98315.63;;;7.75
69364;BMP280;56526;55.406;86.130;2022-10-22T01:40:51;98316.91;;;7.77
69364;BMP280;56526;55.406;86.130;2022-10-22T01:43:18;98309.78;;;7.78
69364;BMP280;56526;55.406;86.130;2022-10-22T01:45:47;98307.91;;;7.78
69364;BMP280;56526;55.406;86.130;2022-10-22T01:51:51;98304.81;;;7.76
69364;BMP280;56526;55.406;86.130;2022-10-22T01:54:56;98302.16;;;7.76
69364;BMP280;56526;55.406;86.130;2022-10-22T02:00:59;98307.91;;;7.78
69364;BMP280;56526;55.406;86.130;2022-10-22T02:07:03;98307.78;;;7.83
69364;BMP280;56526;55.406;86.130;2022-10-22T02:09:32;98316.66;;;7.87
69364;BMP280;56526;55.406;86.130;2022-10-22T02:12:01;98306.28;;;7.91
69364;BMP280;56526;55.406;86.130;2022-10-22T02:14:30;98302.75;;;7.96
69364;BMP280;56526;55.406;86.130;2022-10-22T02:16:57;98300.28;;;7.99
69364;BMP280;56526;55.406;86.130;2022-10-22T02:19:41;98312.09;;;8.02
69364;BMP280;56526;55.406;86.130;2022-10-22T02:22:11;98307.16;;;8.09
69364;BMP280;56526;55.406;86.130;2022-10-22T02:24:38;98307.03;;;8.14
69364;BMP280;56526;55.406;86.130;2022-10-22T02:27:27;98305.84;;;8.20
69364;BMP280;56526;55.406;86.130;2022-10-22T02:30:07;98300.72;;;8.24
69364;BMP280;56526;55.406;86.130;2022-10-22T02:35:09;98289.00;;;8.30
69364;BMP280;56526;55.406;86.130;2022-10-22T02:37:38;98285.41;;;8.34
69364;BMP280;56526;55.406;86.130;2022-10-22T02:40:05;98297.72;;;8.39
69364;BMP280;56526;55.406;86.130;2022-10-22T02:42:32;98276.31;;;8.40
69364;BMP280;56526;55.406;86.130;2022-10-22T02:45:16;98281.28;;;8.42
69364;BMP280;56526;55.406;86.130;2022-10-22T02:47:50;98285.47;;;8.43
69364;BMP280;56526;55.406;86.130;2022-10-22T02:50:20;98275.53;;;8.40
69364;BMP280;56526;55.406;86.130;2022-10-22T02:52:46;98280.03;;;8.39
69364;BMP280;56526;55.406;86.130;2022-10-22T02:55:12;98288.41;;;8.41
69364;BMP280;56526;55.406;86.130;2022-10-22T02:57:38;98279.09;;;8.44
69364;BMP280;56526;55.406;86.130;2022-10-22T03:00:06;98276.91;;;8.46
69364;BMP280;56526;55.406;86.130;2022-10-22T03:02:34;98276.63;;;8.47
69364;BMP280;56526;55.406;86.130;2022-10-22T03:05:03;98274.28;;;8.46
69364;BMP280;56526;55.406;86.130;2022-10-22T03:07:31;98267.31;;;8.41
69364;BMP280;56526;55.406;86.130;2022-10-22T03:09:58;98264.22;;;8.39
69364;BMP280;56526;55.406;86.130;2022-10-22T03:12:24;98263.72;;;8.37
69364;BMP280;56526;55.406;86.130;2022-10-22T03:14:50;98257.38;;;8.38
69364;BMP280;56526;55.406;86.130;2022-10-22T03:17:16;98259.75;;;8.48
69364;BMP280;56526;55.406;86.130;2022-10-22T03:19:43;98236.00;;;8.57
69364;BMP280;56526;55.406;86.130;2022-10-22T03:22:13;98255.16;;;8.71
69364;BMP280;56526;55.406;86.130;2022-10-22T03:24:54;98248.94;;;8.84
69364;BMP280;56526;55.406;86.130;2022-10-22T03:27:23;98248.50;;;8.91
69364;BMP280;56526;55.406;86.130;2022-10-22T03:29:50;98246.63;;;8.92
69364;BMP280;56526;55.406;86.130;2022-10-22T03:32:18;98243.22;;;8.91
69364;BMP280;56526;55.406;86.130;2022-10-22T03:35:12;98235.44;;;8.86
69364;BMP280;56526;55.406;86.130;2022-10-22T03:37:44;98232.00;;;8.85
69364;BMP280;56526;55.406;86.130;2022-10-22T03:40:20;98218.53;;;8.87
69364;BMP280;56526;55.406;86.130;2022-10-22T03:42:47;98233.88;;;8.85
69364;BMP280;56526;55.406;86.130;2022-10-22T03:45:14;98228.16;;;8.83
69364;BMP280;56526;55.406;86.130;2022-10-22T03:47:41;98237.16;;;8.82
69364;BMP280;56526;55.406;86.130;2022-10-22T03:50:07;98237.59;;;8.84
69364;BMP280;56526;55.406;86.130;2022-10-22T03:52:36;98237.28;;;8.85
69364;BMP280;56526;55.406;86.130;2022-10-22T03:55:04;98251.75;;;8.88
69364;BMP280;56526;55.406;86.130;2022-10-22T03:57:32;98232.97;;;8.90
69364;BMP280;56526;55.406;86.130;2022-10-22T03:59:58;98238.72;;;8.92
69364;BMP280;56526;55.406;86.130;2022-10-22T04:02:24;98225.53;;;8.92
69364;BMP280;56526;55.406;86.130;2022-10-22T04:04:50;98233.13;;;8.93
69364;BMP280;56526;55.406;86.130;2022-10-22T04:07:17;98223.31;;;8.94
69364;BMP280;56526;55.406;86.130;2022-10-22T04:09:43;98230.94;;;8.95
69364;BMP280;56526;55.406;86.130;2022-10-22T04:12:10;98226.44;;;8.96
69364;BMP280;56526;55.406;86.130;2022-10-22T04:14:36;98224.56;;;8.96
69364;BMP280;56526;55.406;86.130;2022-10-22T04:17:02;98220.38;;;8.95
69364;BMP280;56526;55.406;86.130;2022-10-22T04:19:29;98224.88;;;8.95
69364;BMP280;56526;55.406;86.130;2022-10-22T04:21:57;98224.28;;;8.98
69364;BMP280;56526;55.406;86.130;2022-10-22T04:24:24;98229.25;;;8.99
69364;BMP280;56526;55.406;86.130;2022-10-22T04:26:53;98210.16;;;9.02
69364;BMP280;56526;55.406;86.130;2022-10-22T04:29:20;98209.81;;;9.04
69364;BMP280;56526;55.406;86.130;2022-10-22T04:31:46;98190.75;;;8.98
69364;BMP280;56526;55.406;86.130;2022-10-22T04:34:13;98199.78;;;8.97
69364;BMP280;56526;55.406;86.130;2022-10-22T04:36:42;98190.00;;;8.98
69364;BMP280;56526;55.406;86.130;2022-10-22T04:39:09;98175.72;;;8.99
69364;BMP280;56526;55.406;86.130;2022-10-22T04:41:36;98172.56;;;9.05
69364;BMP280;56526;55.406;86.130;2022-10-22T04:44:04;98166.69;;;9.08
69364;BMP280;56526;55.406;86.130;2022-10-22T04:46:33;98166.06;;;9.11
69364;BMP280;56526;55.406;86.130;2022-10-22T04:49:00;98166.06;;;9.11
69364;BMP280;56526;55.406;86.130;2022-10-22T04:51:26;98143.41;;;9.10
69364;BMP280;56526;55.406;86.130;2022-10-22T04:53:54;98149.78;;;9.09
69364;BMP280;56526;55.406;86.130;2022-10-22T04:56:22;98157.22;;;9.07
69364;BMP280;56526;55.406;86.130;2022-10-22T04:59:05;98149.78;;;9.09
69364;BMP280;56526;55.406;86.130;2022-10-22T05:01:38;98146.94;;;9.14
69364;BMP280;56526;55.406;86.130;2022-10-22T05:04:07;98123.97;;;9.15
69364;BMP280;56526;55.406;86.130;2022-10-22T05:06:36;98104.59;;;9.20
69364;BMP280;56526;55.406;86.130;2022-10-22T05:09:09;98106.75;;;9.26
69364;BMP280;56526;55.406;86.130;2022-10-22T05:11:42;98093.06;;;9.24
69364;BMP280;56526;55.406;86.130;2022-10-22T05:14:10;98124.28;;;9.31
69364;BMP280;56526;55.406;86.130;2022-10-22T05:16:36;98127.81;;;9.35
69364;BMP280;56526;55.406;86.130;2022-10-22T05:19:03;98116.47;;;9.34
69364;BMP280;56526;55.406;86.130;2022-10-22T05:21:31;98120.19;;;9.33
69364;BMP280;56526;55.406;86.130;2022-10-22T05:23:57;98104.34;;;9.33
69364;BMP280;56526;55.406;86.130;2022-10-22T05:26:24;98115.56;;;9.30
69364;BMP280;56526;55.406;86.130;2022-10-22T05:28:54;98096.75;;;9.32
69364;BMP280;56526;55.406;86.130;2022-10-22T05:31:24;98099.41;;;9.32
69364;BMP280;56526;55.406;86.130;2022-10-22T05:33:50;98102.03;;;9.32
69364;BMP280;56526;55.406;86.130;2022-10-22T05:36:19;98093.47;;;9.35
69364;BMP280;56526;55.406;86.130;2022-10-22T05:38:46;98099.56;;;9.35
69364;BMP280;56526;55.406;86.130;2022-10-22T05:41:16;98110.59;;;9.37
69364;BMP280;56526;55.406;86.130;2022-10-22T05:43:44;98102.66;;;9.37
69364;BMP280;56526;55.406;86.130;2022-10-22T05:46:13;98102.34;;;9.39
69364;BMP280;56526;55.406;86.130;2022-10-22T05:48:41;98093.78;;;9.42
69364;BMP280;56526;55.406;86.130;2022-10-22T05:51:10;98089.44;;;9.46
69364;BMP280;56526;55.406;86.130;2022-10-22T05:53:40;98081.50;;;9.46
69364;BMP280;56526;55.406;86.130;2022-10-22T05:56:10;98073.28;;;9.47
69364;BMP280;56526;55.406;86.130;2022-10-22T05:58:38;98078.25;;;9.49
69364;BMP280;56526;55.406;86.130;2022-10-22T06:01:07;98069.97;;;9.50
69364;BMP280;56526;55.406;86.130;2022-10-22T06:03:38;98065.81;;;9.49
69364;BMP280;56526;55.406;86.130;2022-10-22T06:06:32;98061.41;;;9.54
69364;BMP280;56526;55.406;86.130;2022-10-22T06:09:20;98066.41;;;9.55
69364;BMP280;56526;55.406;86.130;2022-10-22T06:11:52;98063.75;;;9.55
69364;BMP280;56526;55.406;86.130;2022-10-22T06:14:19;98056.31;;;9.57
69364;BMP280;56526;55.406;86.130;2022-10-22T06:16:46;98036.72;;;9.58
69364;BMP280;56526;55.406;86.130;2022-10-22T06:19:15;98033.88;;;9.63
69364;BMP280;56526;55.406;86.130;2022-10-22T06:21:43;98028.75;;;9.67
69364;BMP280;56526;55.406;86.130;2022-10-22T06:24:10;98023.91;;;9.69
69364;BMP280;56526;55.406;86.130;2022-10-22T06:26:38;98019.50;;;9.73
69364;BMP280;56526;55.406;86.130;2022-10-22T06:29:05;98001.97;;;9.77
69364;BMP280;56526;55.406;86.130;2022-10-22T06:31:32;98002.84;;;9.81
69364;BMP280;56526;55.406;86.130;2022-10-22T06:33:59;97996.63;;;9.86
69364;BMP280;56526;55.406;86.130;2022-10-22T06:36:25;98001.22;;;9.89
69364;BMP280;56526;55.406;86.130;2022-10-22T06:38:55;97989.72;;;9.93
69364;BMP280;56526;55.406;86.130;2022-10-22T06:41:22;97988.72;;;9.98
69364;BMP280;56526;55.406;86.130;2022-10-22T06:43:49;97993.38;;;10.01
69364;BMP280;56526;55.406;86.130;2022-10-22T06:46:17;97995.69;;;10.02
69364;BMP280;56526;55.406;86.130;2022-10-22T06:48:59;97983.81;;;10.08
69364;BMP280;56526;55.406;86.130;2022-10-22T06:51:26;97977.56;;;10.13
69364;BMP280;56526;55.406;86.130;2022-10-22T06:53:56;97980.47;;;10.20
69364;BMP280;56526;55.406;86.130;2022-10-22T06:56:26;97970.13;;;10.27
69364;BMP280;56526;55.406;86.130;2022-10-22T06:58:55;97968.06;;;10.33
69364;BMP280;56526;55.406;86.130;2022-10-22T07:01:30;97967.81;;;10.38
69364;BMP280;56526;55.406;86.130;2022-10-22T07:03:57;97962.69;;;10.41
69364;BMP280;56526;55.406;86.130;2022-10-22T07:06:26;97958.63;;;10.44
69364;BMP280;56526;55.406;86.130;2022-10-22T07:08:54;97948.91;;;10.48
69364;BMP280;56526;55.406;86.130;2022-10-22T07:11:29;97946.25;;;10.48
69364;BMP280;56526;55.406;86.130;2022-10-22T07:13:58;97943.53;;;10.44
69364;BMP280;56526;55.406;86.130;2022-10-22T07:16:25;97950.41;;;10.37
69364;BMP280;56526;55.406;86.130;2022-10-22T07:18:52;97938.06;;;10.29
69364;BMP280;56526;55.406;86.130;2022-10-22T07:21:18;97943.09;;;10.22
69364;BMP280;56526;55.406;86.130;2022-10-22T07:23:45;97930.78;;;10.13
69364;BMP280;56526;55.406;86.130;2022-10-22T07:26:14;97920.50;;;10.12
69364;BMP280;56526;55.406;86.130;2022-10-22T07:28:45;97922.72;;;10.10
69364;BMP280;56526;55.406;86.130;2022-10-22T07:31:13;97932.50;;;10.09
69364;BMP280;56526;55.406;86.130;2022-10-22T07:33:40;97926.44;;;10.09
69364;BMP280;56526;55.406;86.130;2022-10-22T07:36:10;97932.50;;;10.09
69364;BMP280;56526;55.406;86.130;2022-10-22T07:38:37;97928.00;;;10.10
69364;BMP280;56526;55.406;86.130;2022-10-22T07:41:04;97925.69;;;10.08
69364;BMP280;56526;55.406;86.130;2022-10-22T07:43:30;97922.72;;;10.10
69364;BMP280;56526;55.406;86.130;2022-10-22T07:45:56;97901.91;;;10.08
69364;BMP280;56526;55.406;86.130;2022-10-22T07:48:23;97905.31;;;10.09
69364;BMP280;56526;55.406;86.130;2022-10-22T07:50:50;97899.34;;;10.12
69364;BMP280;56526;55.406;86.130;2022-10-22T07:53:17;97877.56;;;10.15
69364;BMP280;56526;55.406;86.130;2022-10-22T07:55:47;97878.47;;;10.19
69364;BMP280;56526;55.406;86.130;2022-10-22T07:58:14;97877.00;;;10.22
69364;BMP280;56526;55.406;86.130;2022-10-22T08:00:42;97866.91;;;10.24
69364;BMP280;56526;55.406;86.130;2022-10-22T08:03:10;97879.47;;;10.27
69364;BMP280;56526;55.406;86.130;2022-10-22T08:05:37;97894.34;;;10.31
69364;BMP280;56526;55.406;86.130;2022-10-22T08:08:05;97903.50;;;10.34
69364;BMP280;56526;55.406;86.130;2022-10-22T08:10:32;97891.91;;;10.38
69364;BMP280;56526;55.406;86.130;2022-10-22T08:12:58;97892.50;;;10.44
69364;BMP280;56526;55.406;86.130;2022-10-22T08:15:25;97872.66;;;10.50
69364;BMP280;56526;55.406;86.130;2022-10-22T08:17:52;97878.06;;;10.54
69364;BMP280;56526;55.406;86.130;2022-10-22T08:20:18;97886.44;;;10.56
69364;BMP280;56526;55.406;86.130;2022-10-22T08:22:45;97892.63;;;10.60
69364;BMP280;56526;55.406;86.130;2022-10-22T08:25:11;97886.66;;;10.63
69364;BMP280;56526;55.406;86.130;2022-10-22T08:27:38;97883.25;;;10.62
69364;BMP280;56526;55.406;86.130;2022-10-22T08:30:04;97891.97;;;10.63
69364;BMP280;56526;55.406;86.130;2022-10-22T08:32:31;97897.69;;;10.65
69364;BMP280;56526;55.406;86.130;2022-10-22T08:34:58;97898.13;;;10.67
69364;BMP280;56526;55.406;86.130;2022-10-22T08:37:24;97897.03;;;10.68
69364;BMP280;56526;55.406;86.130;2022-10-22T08:39:50;97881.94;;;10.68
69364;BMP280;56526;55.406;86.130;2022-10-22T08:42:43;97892.84;;;10.67
69364;BMP280;56526;55.406;86.130;2022-10-22T08:51:26;97873.09;;;10.64
69364;BMP280;56526;55.406;86.130;2022-10-22T08:54:27;97887.44;;;10.63
69364;BMP280;56526;55.406;86.130;2022-10-22T08:57:14;97882.84;;;10.60
69364;BMP280;56526;55.406;86.130;2022-10-22T09:03:23;97887.44;;;10.51
69364;BMP280;56526;55.406;86.130;2022-10-22T09:08:50;97876.97;;;10.42
69364;BMP280;56526;55.406;86.130;2022-10-22T09:11:38;97878.38;;;10.40
69364;BMP280;56526;55.406;86.130;2022-10-22T09:14:29;97858.66;;;10.37
69364;BMP280;56526;55.406;86.130;2022-10-22T09:20:20;97857.31;;;10.31
69364;BMP280;56526;55.406;86.130;2022-10-22T09:25:39;97848.16;;;10.29
69364;BMP280;56526;55.406;86.130;2022-10-22T09:28:08;97849.72;;;10.30
69364;BMP280;56526;55.406;86.130;2022-10-22T09:30:36;97845.97;;;10.31
69364;BMP280;56526;55.406;86.130;2022-10-22T09:33:27;97839.28;;;10.33
69364;BMP280;56526;55.406;86.130;2022-10-22T09:36:03;97832.56;;;10.36
69364;BMP280;56526;55.406;86.130;2022-10-22T09:38:33;97820.19;;;10.40
69364;BMP280;56526;55.406;86.130;2022-10-22T09:41:07;97810.88;;;10.42
69364;BMP280;56526;55.406;86.130;2022-10-22T09:43:34;97807.97;;;10.47
69364;BMP280;56526;55.406;86.130;2022-10-22T09:46:05;97793.31;;;10.50
69364;BMP280;56526;55.406;86.130;2022-10-22T09:48:46;97787.41;;;10.53
69364;BMP280;56526;55.406;86.130;2022-10-22T09:51:22;97785.94;;;10.56
69364;BMP280;56526;55.406;86.130;2022-10-22T09:54:01;97783.63;;;10.54
69364;BMP280;56526;55.406;86.130;2022-10-22T09:56:36;97781.75;;;10.55
69364;BMP280;56526;55.406;86.130;2022-10-22T09:59:05;97788.13;;;10.54
69364;BMP280;56526;55.406;86.130;2022-10-22T10:01:39;97782.09;;;10.53
69364;BMP280;56526;55.406;86.130;2022-10-22T10:04:09;97774.25;;;10.57
69364;BMP280;56526;55.406;86.130;2022-10-22T10:06:39;97767.09;;;10.57
69364;BMP280;56526;55.406;86.130;2022-10-22T10:09:15;97758.81;;;10.59
69364;BMP280;56526;55.406;86.130;2022-10-22T10:26:36;97750.00;;;10.67
69364;BMP280;56526;55.406;86.130;2022-10-22T10:29:26;97754.66;;;10.70
69364;BMP280;56526;55.406;86.130;2022-10-22T10:38:26;97728.28;;;10.73
69364;BMP280;56526;55.406;86.130;2022-10-22T10:49:37;97726.63;;;10.69
69364;BMP280;56526;55.406;86.130;2022-10-22T10:52:28;97722.09;;;10.69
69364;BMP280;56526;55.406;86.130;2022-10-22T11:00:52;97708.00;;;10.65
69364;BMP280;56526;55.406;86.130;2022-10-22T11:06:14;97693.56;;;10.63
69364;BMP280;56526;55.406;86.130;2022-10-22T11:08:53;97694.00;;;10.65
69364;BMP280;56526;55.406;86.130;2022-10-22T11:17:16;97697.97;;;10.71
69364;BMP280;56526;55.406;86.130;2022-10-22T11:19:47;97697.28;;;10.74
69364;BMP280;56526;55.406;86.130;2022-10-22T11:22:38;97702.25;;;10.75
69364;BMP280;56526;55.406;86.130;2022-10-22T11:25:23;97706.44;;;10.76
69364;BMP280;56526;55.406;86.130;2022-10-22T11:31:13;97703.78;;;10.76
69364;BMP280;56526;55.406;86.130;2022-10-22T11:33:50;97712.50;;;10.77
69364;BMP280;56526;55.406;86.130;2022-10-22T11:36:22;97705.34;;;10.77
69364;BMP280;56526;55.406;86.130;2022-10-22T11:38:50;97702.31;;;10.79
69364;BMP280;56526;55.406;86.130;2022-10-22T11:41:23;97703.88;;;10.80
69364;BMP280;56526;55.406;86.130;2022-10-22T11:46:44;97695.19;;;10.79
69364;BMP280;56526;55.406;86.130;2022-10-22T11:51:41;97695.09;;;10.76
69364;BMP280;56526;55.406;86.130;2022-10-22T11:59:50;97678.69;;;10.70
69364;BMP280;56526;55.406;86.130;2022-10-22T12:02:40;97687.38;;;10.71
69364;BMP280;56526;55.406;86.130;2022-10-22T12:05:30;97661.69;;;10.71
69364;BMP280;56526;55.406;86.130;2022-10-22T12:08:02;97663.66;;;10.74
69364;BMP280;56526;55.406;86.130;2022-10-22T12:16:22;97655.19;;;10.97
69364;BMP280;56526;55.406;86.130;2022-10-22T12:18:56;97654.84;;;10.98
69364;BMP280;56526;55.406;86.130;2022-10-22T12:21:57;97650.06;;;11.04
69364;BMP280;56526;55.406;86.130;2022-10-22T12:24:29;97650.94;;;11.08
69364;BMP280;56526;55.406;86.130;2022-10-22T12:26:57;97654.09;;;11.13
69364;BMP280;56526;55.406;86.130;2022-10-22T12:29:24;97655.31;;;11.16
69364;BMP280;56526;55.406;86.130;2022-10-22T12:31:50;97643.63;;;11.17
69364;BMP280;56526;55.406;86.130;2022-10-22T12:34:23;97642.94;;;11.20
69364;BMP280;56526;55.406;86.130;2022-10-22T12:36:51;97640.78;;;11.26
69364;BMP280;56526;55.406;86.130;2022-10-22T12:39:21;97639.34;;;11.28
69364;BMP280;56526;55.406;86.130;2022-10-22T12:41:52;97643.53;;;11.29
69364;BMP280;56526;55.406;86.130;2022-10-22T12:44:19;97636.38;;;11.30
69364;BMP280;56526;55.406;86.130;2022-10-22T12:46:47;97637.19;;;11.34
69364;BMP280;56526;55.406;86.130;2022-10-22T12:49:19;97630.56;;;11.40
69364;BMP280;56526;55.406;86.130;2022-10-22T12:51:47;97612.53;;;11.45
69364;BMP280;56526;55.406;86.130;2022-10-22T12:54:26;97616.09;;;11.53
69364;BMP280;56526;55.406;86.130;2022-10-22T12:56:55;97601.50;;;11.59
69364;BMP280;56526;55.406;86.130;2022-10-22T12:59:28;97608.38;;;11.64
69364;BMP280;56526;55.406;86.130;2022-10-22T13:01:58;97606.97;;;11.66
69364;BMP280;56526;55.406;86.130;2022-10-22T13:09:40;97582.38;;;11.85
69364;BMP280;56526;55.406;86.130;2022-10-22T13:12:12;97581.75;;;11.92
69364;BMP280;56526;55.406;86.130;2022-10-22T13:14:39;97574.31;;;11.97
69364;BMP280;56526;55.406;86.130;2022-10-22T13:19:43;97561.53;;;12.03
69364;BMP280;56526;55.406;86.130;2022-10-22T13:22:40;97553.91;;;12.01
69364;BMP280;56526;55.406;86.130;2022-10-22T13:25:24;97548.72;;;12.05
69364;BMP280;56526;55.406;86.130;2022-10-22T13:28:00;97544.22;;;12.09
69364;BMP280;56526;55.406;86.130;2022-10-22T13:30:38;97540.13;;;12.11
69364;BMP280;56526;55.406;86.130;2022-10-22T13:33:27;97523.88;;;12.13
69364;BMP280;56526;55.406;86.130;2022-10-22T13:35:57;97518.56;;;12.13
69364;BMP280;56526;55.406;86.130;2022-10-22T13:38:25;97522.41;;;12.15
69364;BMP280;56526;55.406;86.130;2022-10-22T13:40:53;97513.41;;;12.20
69364;BMP280;56526;55.406;86.130;2022-10-22T13:43:20;97510.75;;;12.20
69364;BMP280;56526;55.406;86.130;2022-10-22T13:45:48;97505.16;;;12.25
69364;BMP280;56526;55.406;86.130;2022-10-22T13:48:20;97500.31;;;12.31
69364;BMP280;56526;55.406;86.130;2022-10-22T13:50:48;97501.84;;;12.32
69364;BMP280;56526;55.406;86.130;2022-10-22T13:53:22;97491.25;;;12.32
69364;BMP280;56526;55.406;86.130;2022-10-22T13:56:01;97488.59;;;12.32
69364;BMP280;56526;55.406;86.130;2022-10-22T13:58:28;97481.84;;;12.34
69364;BMP280;56526;55.406;86.130;2022-10-22T14:00:58;97468.63;;;12.38
69364;BMP280;56526;55.406;86.130;2022-10-22T14:03:36;97464.88;;;12.42
69364;BMP280;56526;55.406;86.130;2022-10-22T14:06:12;97445.63;;;12.45
69364;BMP280;56526;55.406;86.130;2022-10-22T14:08:40;97447.94;;;12.47
69364;BMP280;56526;55.406;86.130;2022-10-22T14:11:10;97446.09;;;12.51
69364;BMP280;56526;55.406;86.130;2022-10-22T14:13:37;97437.84;;;12.56
69364;BMP280;56526;55.406;86.130;2022-10-22T14:16:05;97432.19;;;12.58
69364;BMP280;56526;55.406;86.130;2022-10-22T14:18:32;97430.28;;;12.58
69364;BMP280;56526;55.406;86.130;2022-10-22T14:21:01;97421.22;;;12.59
69364;BMP280;56526;55.406;86.130;2022-10-22T14:23:29;97418.91;;;12.58
69364;BMP280;56526;55.406;86.130;2022-10-22T14:25:57;97417.00;;;12.55
69364;BMP280;56526;55.406;86.130;2022-10-22T14:28:24;97420.00;;;12.53
69364;BMP280;56526;55.406;86.130;2022-10-22T14:30:51;97413.13;;;12.52
69364;BMP280;56526;55.406;86.130;2022-10-22T14:33:26;97418.03;;;12.50
69364;BMP280;56526;55.406;86.130;2022-10-22T14:35:58;97412.69;;;12.46
69364;BMP280;56526;55.406;86.130;2022-10-22T14:38:24;97415.75;;;12.48
69364;BMP280;56526;55.406;86.130;2022-10-22T14:40:51;97418.00;;;12.46
69364;BMP280;56526;55.406;86.130;2022-10-22T14:43:23;97401.66;;;12.44
69364;BMP280;56526;55.406;86.130;2022-10-22T14:45:53;97413.03;;;12.45
69364;BMP280;56526;55.406;86.130;2022-10-22T14:48:19;97413.03;;;12.45
69364;BMP280;56526;55.406;86.130;2022-10-22T14:50:46;97411.50;;;12.44
69364;BMP280;56526;55.406;86.130;2022-10-22T14:53:13;97403.88;;;12.42
69364;BMP280;56526;55.406;86.130;2022-10-22T14:55:40;97395.53;;;12.40
69364;BMP280;56526;55.406;86.130;2022-10-22T14:58:06;97404.63;;;12.39
69364;BMP280;56526;55.406;86.130;2022-10-22T15:00:33;97389.41;;;12.36
69364;BMP280;56526;55.406;86.130;2022-10-22T15:02:59;97389.03;;;12.34
69364;BMP280;56526;55.406;86.130;2022-10-22T15:05:25;97391.56;;;12.31
69364;BMP280;56526;55.406;86.130;2022-10-22T15:07:51;97388.50;;;12.29
69364;BMP280;56526;55.406;86.130;2022-10-22T15:10:17;97395.69;;;12.28
69364;BMP280;56526;55.406;86.130;2022-10-22T15:12:44;97404.81;;;12.27
69364;BMP280;56526;55.406;86.130;2022-10-22T15:15:10;97397.19;;;12.26
69364;BMP280;56526;55.406;86.130;2022-10-22T15:17:37;97411.91;;;12.46
69364;BMP280;56526;55.406;86.130;2022-10-22T15:20:04;97396.13;;;12.53
69364;BMP280;56526;55.406;86.130;2022-10-22T15:22:31;97396.81;;;12.50
69364;BMP280;56526;55.406;86.130;2022-10-22T15:25:12;97399.34;;;12.43
69364;BMP280;56526;55.406;86.130;2022-10-22T15:27:39;97403.03;;;12.35
69364;BMP280;56526;55.406;86.130;2022-10-22T15:30:06;97383.59;;;12.27
69364;BMP280;56526;55.406;86.130;2022-10-22T15:32:33;97414.56;;;12.23
69364;BMP280;56526;55.406;86.130;2022-10-22T15:35:00;97414.22;;;12.25
69364;BMP280;56526;55.406;86.130;2022-10-22T15:37:26;97425.94;;;12.24
69364;BMP280;56526;55.406;86.130;2022-10-22T15:39:53;97416.41;;;12.19
69364;BMP280;56526;55.406;86.130;2022-10-22T15:42:19;97417.47;;;12.14
69364;BMP280;56526;55.406;86.130;2022-10-22T15:44:45;97398.78;;;12.07
69364;BMP280;56526;55.406;86.130;2022-10-22T15:47:11;97397.88;;;12.00
69364;BMP280;56526;55.406;86.130;2022-10-22T15:49:38;97392.84;;;11.95
69364;BMP280;56526;55.406;86.130;2022-10-22T15:52:05;97401.88;;;11.90
69364;BMP280;56526;55.406;86.130;2022-10-22T15:54:32;97379.50;;;11.88
69364;BMP280;56526;55.406;86.130;2022-10-22T15:56:59;97378.72;;;11.87
69364;BMP280;56526;55.406;86.130;2022-10-22T15:59:26;97382.50;;;11.86
69364;BMP280;56526;55.406;86.130;2022-10-22T16:01:53;97373.03;;;11.85
69364;BMP280;56526;55.406;86.130;2022-10-22T16:04:19;97360.88;;;11.84
69364;BMP280;56526;55.406;86.130;2022-10-22T16:06:50;97374.47;;;11.82
69364;BMP280;56526;55.406;86.130;2022-10-22T16:09:20;97368.00;;;11.80
69364;BMP280;56526;55.406;86.130;2022-10-22T16:11:48;97366.06;;;11.77
69364;BMP280;56526;55.406;86.130;2022-10-22T16:14:16;97357.25;;;11.73
69364;BMP280;56526;55.406;86.130;2022-10-22T16:16:45;97360.66;;;11.70
69364;BMP280;56526;55.406;86.130;2022-10-22T16:19:20;97365.44;;;11.64
69364;BMP280;56526;55.406;86.130;2022-10-22T16:21:52;97366.84;;;11.58
69364;BMP280;56526;55.406;86.130;2022-10-22T16:24:21;97371.66;;;11.53
69364;BMP280;56526;55.406;86.130;2022-10-22T16:26:47;97363.56;;;11.45